Minerva Libra — SVAA7 — position and weather

sailwx.info

Track history (hours):
 
Tides and Currents Weather Stations Pressure Air Temp Water Temp Dewpoint Dewpoint Depression Visibility Wind Speed Wind Dir Waves Ship Positions

Minerva Libra

Last reported at 2015-Jan-25 17:21 UTC. Time now 2015-Jan-25 18:25 UTC.
Position N 55°13' E 006°01'.

Length 250 m; draft 8 m.

Type: Tanker. MMSI: 240766000.

Date/timePositionNaut miles runAvg speedWind from/ knotsBaromVisibWave heightAir tempDewpointWater temp
2015-Jan-25 17:21N 55°13' E 006°01'61 8.8
2015-Jan-25 10:25N 54°20' E 005°08'9 8.7
2015-Jan-25 09:24N 54°12' E 005°01'7 8.7
2015-Jan-25 08:33N 54°06' E 004°54'9 8.9
2015-Jan-25 07:31N 53°59' E 004°43'101 7.2
2015-Jan-24 17:33N 52°30' E 003°25'9 8.6
2015-Jan-24 16:32N 52°21' E 003°26'8 8.0
2015-Jan-24 15:32N 52°14' E 003°29'10 6.7
2015-Jan-24 14:04N 52°06' E 003°39'4 7.1
2015-Jan-24 13:33N 52°05' E 003°45'7 7.5
2015-Jan-24 12:33N 52°02' E 003°56'7 6.9
2015-Jan-24 11:33N 51°58' E 004°05'4 3.4
2015-Jan-24 10:29N 51°59' E 003°59'0 0.0
2015-Jan-24 09:32N 51°59' E 003°59'0 0.0
2015-Jan-24 08:32N 51°59' E 003°59'0 0.0
2015-Jan-24 07:29N 51°59' E 003°59'0 0.0
2015-Jan-24 06:32N 51°59' E 003°59'0 0.0
2015-Jan-24 05:32N 51°59' E 003°59'0 0.0
2015-Jan-24 04:32N 51°59' E 003°59'0 0.0
2015-Jan-24 03:32N 51°59' E 003°59'0 0.0
2015-Jan-24 02:26N 51°59' E 003°59'0 0.0
2015-Jan-24 01:32N 51°59' E 003°59'0 0.0
2015-Jan-24 00:29N 51°59' E 003°59'0 0.0
2015-Jan-23 23:31N 51°59' E 003°59'0 0.0
2015-Jan-23 22:28N 51°59' E 003°59'0 0.0
2015-Jan-23 21:32N 51°59' E 003°59'0 0.0
2015-Jan-23 20:32N 51°59' E 003°59'0 0.0
2015-Jan-23 19:32N 51°59' E 003°59'0 0.0
2015-Jan-23 18:32N 51°59' E 003°59'0 0.0
2015-Jan-23 17:31N 51°59' E 003°59'0 0.0
2015-Jan-23 16:31N 51°59' E 003°59'0 0.0
2015-Jan-23 15:31N 51°59' E 003°59'0 0.0
2015-Jan-23 14:31N 51°59' E 003°59'0 0.0
2015-Jan-23 13:28N 51°59' E 003°59'0 0.0
2015-Jan-23 12:31N 51°59' E 003°59'0 0.0
2015-Jan-23 11:28N 51°59' E 003°59'0 0.0
2015-Jan-23 10:31N 51°59' E 003°59'0 0.0
2015-Jan-23 09:28N 51°59' E 003°59'0 0.0
2015-Jan-23 08:31N 51°59' E 003°59'0 0.0
2015-Jan-23 07:28N 51°59' E 003°59'0 0.0
2015-Jan-23 06:31N 51°59' E 003°59'0 0.0
2015-Jan-23 05:32N 51°59' E 003°59'0 0.0
2015-Jan-23 04:29N 51°59' E 003°59'0 0.0
2015-Jan-23 03:31N 51°59' E 003°59'0 0.0
2015-Jan-23 02:28N 51°59' E 003°59'0 0.0
2015-Jan-23 01:20N 51°59' E 003°59'0 0.0
2015-Jan-23 00:31N 51°59' E 003°59'0 0.0
2015-Jan-22 23:31N 51°59' E 003°59'0 0.0
2015-Jan-22 22:31N 51°59' E 003°59'0 0.0
2015-Jan-22 21:31N 51°59' E 003°59'0 0.0
2015-Jan-22 20:31N 51°59' E 003°59'0 0.0
2015-Jan-22 19:31N 51°59' E 003°59'0 0.0
2015-Jan-22 18:31N 51°59' E 003°59'0 0.0
2015-Jan-22 17:31N 51°59' E 003°59'0 0.0
2015-Jan-22 16:31N 51°59' E 003°59'0 0.0
2015-Jan-22 15:32N 51°59' E 003°59'0 0.0
2015-Jan-22 14:31N 51°59' E 003°59'0 0.0
2015-Jan-22 13:31N 51°59' E 003°59'0 0.0
2015-Jan-22 12:25N 51°59' E 003°59'0 0.0
2015-Jan-22 11:31N 51°59' E 003°59'0 0.0
2015-Jan-22 10:31N 51°59' E 003°59'0 0.0
2015-Jan-22 09:28N 51°59' E 003°59'0 0.0
2015-Jan-22 08:31N 51°59' E 003°59'0 0.0
2015-Jan-22 07:28N 51°59' E 003°59'1 1.0
2015-Jan-22 06:33N 51°59' E 004°01'2 1.7
2015-Jan-22 05:33N 51°59' E 004°03'9 9.2
2015-Jan-22 04:33N 52°00' E 003°49'9 9.0
2015-Jan-22 03:32N 51°57' E 003°34'38 7.1
2015-Jan-21 22:08N 52°20' E 002°44'1113.1
2015-Jan-21 21:16N 52°30' E 002°53'41511.3
2015-Jan-20 08:24N 57°48' E 010°39'1310.6
2015-Jan-20 07:09N 57°39' E 010°57'812.7
2015-Jan-20 06:33N 57°35' E 011°08'1212.1
2015-Jan-20 05:32N 57°27' E 011°26'1212.2
2015-Jan-20 04:33N 57°16' E 011°34'1312.2
2015-Jan-20 03:31N 57°04' E 011°41'1212.2
2015-Jan-20 02:32N 56°52' E 011°49'1111.4
2015-Jan-20 01:33N 56°41' E 011°49'12511.2
2015-Jan-19 14:18N 54°41' E 010°48'1012.9
2015-Jan-19 13:34N 54°37' E 011°03'1313.2
2015-Jan-19 12:33N 54°32' E 011°25'1313.4
2015-Jan-19 11:33N 54°26' E 011°45'1313.2
2015-Jan-19 10:33N 54°26' E 012°08'1212.0
2015-Jan-19 09:33N 54°37' E 012°18'9 7.2
2015-Jan-19 08:20N 54°41' E 012°31'6 7.7
2015-Jan-19 07:33N 54°44' E 012°40'9 9.0
2015-Jan-19 06:33N 54°48' E 012°54'9 8.6
2015-Jan-19 05:33N 54°52' E 013°07'10 9.9
2015-Jan-19 04:31N 54°56' E 013°24'1212.6
2015-Jan-19 03:33N 54°60' E 013°44'1212.0
2015-Jan-19 02:33N 55°04' E 014°03'1212.3
2015-Jan-19 01:33N 55°14' E 014°17'1312.7
2015-Jan-19 00:33N 55°23' E 014°31'1212.1
2015-Jan-18 23:33N 55°30' E 014°48'1211.9
2015-Jan-18 22:33N 55°36' E 015°07'1612.4
2015-Jan-18 21:17N 55°41' E 015°33'37411.0
2015-Jan-17 11:21N 59°47' E 024°22'911.6
2015-Jan-17 10:33N 59°49' E 024°40'5911.7
2015-Jan-17 05:33N 60°02' E 026°34'  
Track history (hours):
 
Tides and Currents Weather Stations Pressure Air Temp Water Temp Dewpoint Dewpoint Depression Visibility Wind Speed Wind Dir Waves Ship Positions

Minerva Libra

Last reported at 2015-Jan-25 17:21 UTC. Time now 2015-Jan-25 18:25 UTC.
Position N 55°13' E 006°01'.

Length 250 m; draft 8 m.

Type: Tanker. MMSI: 240766000.

Date/timePositionNaut miles runAvg speedWind from/ knotsBaromVisibWave heightAir tempDewpointWater temp
2015-Jan-25 17:21N 55°13' E 006°01'61 8.8
2015-Jan-25 10:25N 54°20' E 005°08'9 8.7
2015-Jan-25 09:24N 54°12' E 005°01'7 8.7
2015-Jan-25 08:33N 54°06' E 004°54'9 8.9
2015-Jan-25 07:31N 53°59' E 004°43'101 7.2
2015-Jan-24 17:33N 52°30' E 003°25'9 8.6
2015-Jan-24 16:32N 52°21' E 003°26'8 8.0
2015-Jan-24 15:32N 52°14' E 003°29'10 6.7
2015-Jan-24 14:04N 52°06' E 003°39'4 7.1
2015-Jan-24 13:33N 52°05' E 003°45'7 7.5
2015-Jan-24 12:33N 52°02' E 003°56'7 6.9
2015-Jan-24 11:33N 51°58' E 004°05'4 3.4
2015-Jan-24 10:29N 51°59' E 003°59'0 0.0
2015-Jan-24 09:32N 51°59' E 003°59'0 0.0
2015-Jan-24 08:32N 51°59' E 003°59'0 0.0
2015-Jan-24 07:29N 51°59' E 003°59'0 0.0
2015-Jan-24 06:32N 51°59' E 003°59'0 0.0
2015-Jan-24 05:32N 51°59' E 003°59'0 0.0
2015-Jan-24 04:32N 51°59' E 003°59'0 0.0
2015-Jan-24 03:32N 51°59' E 003°59'0 0.0
2015-Jan-24 02:26N 51°59' E 003°59'0 0.0
2015-Jan-24 01:32N 51°59' E 003°59'0 0.0
2015-Jan-24 00:29N 51°59' E 003°59'0 0.0
2015-Jan-23 23:31N 51°59' E 003°59'0 0.0
2015-Jan-23 22:28N 51°59' E 003°59'0 0.0
2015-Jan-23 21:32N 51°59' E 003°59'0 0.0
2015-Jan-23 20:32N 51°59' E 003°59'0 0.0
2015-Jan-23 19:32N 51°59' E 003°59'0 0.0
2015-Jan-23 18:32N 51°59' E 003°59'0 0.0
2015-Jan-23 17:31N 51°59' E 003°59'0 0.0
2015-Jan-23 16:31N 51°59' E 003°59'0 0.0
2015-Jan-23 15:31N 51°59' E 003°59'0 0.0
2015-Jan-23 14:31N 51°59' E 003°59'0 0.0
2015-Jan-23 13:28N 51°59' E 003°59'0 0.0
2015-Jan-23 12:31N 51°59' E 003°59'0 0.0
2015-Jan-23 11:28N 51°59' E 003°59'0 0.0
2015-Jan-23 10:31N 51°59' E 003°59'0 0.0
2015-Jan-23 09:28N 51°59' E 003°59'0 0.0
2015-Jan-23 08:31N 51°59' E 003°59'0 0.0
2015-Jan-23 07:28N 51°59' E 003°59'0 0.0
2015-Jan-23 06:31N 51°59' E 003°59'0 0.0
2015-Jan-23 05:32N 51°59' E 003°59'0 0.0
2015-Jan-23 04:29N 51°59' E 003°59'0 0.0
2015-Jan-23 03:31N 51°59' E 003°59'0 0.0
2015-Jan-23 02:28N 51°59' E 003°59'0 0.0
2015-Jan-23 01:20N 51°59' E 003°59'0 0.0
2015-Jan-23 00:31N 51°59' E 003°59'0 0.0
2015-Jan-22 23:31N 51°59' E 003°59'0 0.0
2015-Jan-22 22:31N 51°59' E 003°59'0 0.0
2015-Jan-22 21:31N 51°59' E 003°59'0 0.0
2015-Jan-22 20:31N 51°59' E 003°59'0 0.0
2015-Jan-22 19:31N 51°59' E 003°59'0 0.0
2015-Jan-22 18:31N 51°59' E 003°59'0 0.0
2015-Jan-22 17:31N 51°59' E 003°59'0 0.0
2015-Jan-22 16:31N 51°59' E 003°59'0 0.0
2015-Jan-22 15:32N 51°59' E 003°59'0 0.0
2015-Jan-22 14:31N 51°59' E 003°59'0 0.0
2015-Jan-22 13:31N 51°59' E 003°59'0 0.0
2015-Jan-22 12:25N 51°59' E 003°59'0 0.0
2015-Jan-22 11:31N 51°59' E 003°59'0 0.0
2015-Jan-22 10:31N 51°59' E 003°59'0 0.0
2015-Jan-22 09:28N 51°59' E 003°59'0 0.0
2015-Jan-22 08:31N 51°59' E 003°59'0 0.0
2015-Jan-22 07:28N 51°59' E 003°59'1 1.0
2015-Jan-22 06:33N 51°59' E 004°01'2 1.7
2015-Jan-22 05:33N 51°59' E 004°03'9 9.2
2015-Jan-22 04:33N 52°00' E 003°49'9 9.0
2015-Jan-22 03:32N 51°57' E 003°34'38 7.1
2015-Jan-21 22:08N 52°20' E 002°44'1113.1
2015-Jan-21 21:16N 52°30' E 002°53'41511.3
2015-Jan-20 08:24N 57°48' E 010°39'1310.6
2015-Jan-20 07:09N 57°39' E 010°57'812.7
2015-Jan-20 06:33N 57°35' E 011°08'1212.1
2015-Jan-20 05:32N 57°27' E 011°26'1212.2
2015-Jan-20 04:33N 57°16' E 011°34'1312.2
2015-Jan-20 03:31N 57°04' E 011°41'1212.2
2015-Jan-20 02:32N 56°52' E 011°49'1111.4
2015-Jan-20 01:33N 56°41' E 011°49'12511.2
2015-Jan-19 14:18N 54°41' E 010°48'1012.9
2015-Jan-19 13:34N 54°37' E 011°03'1313.2
2015-Jan-19 12:33N 54°32' E 011°25'1313.4
2015-Jan-19 11:33N 54°26' E 011°45'1313.2
2015-Jan-19 10:33N 54°26' E 012°08'1212.0
2015-Jan-19 09:33N 54°37' E 012°18'9 7.2
2015-Jan-19 08:20N 54°41' E 012°31'6 7.7
2015-Jan-19 07:33N 54°44' E 012°40'9 9.0
2015-Jan-19 06:33N 54°48' E 012°54'9 8.6
2015-Jan-19 05:33N 54°52' E 013°07'10 9.9
2015-Jan-19 04:31N 54°56' E 013°24'1212.6
2015-Jan-19 03:33N 54°60' E 013°44'1212.0
2015-Jan-19 02:33N 55°04' E 014°03'1212.3
2015-Jan-19 01:33N 55°14' E 014°17'1312.7
2015-Jan-19 00:33N 55°23' E 014°31'1212.1
2015-Jan-18 23:33N 55°30' E 014°48'1211.9
2015-Jan-18 22:33N 55°36' E 015°07'1612.4
2015-Jan-18 21:17N 55°41' E 015°33'37411.0
2015-Jan-17 11:21N 59°47' E 024°22'911.6
2015-Jan-17 10:33N 59°49' E 024°40'5911.7
2015-Jan-17 05:33N 60°02' E 026°34'  

Dump ship's entire track history